Time;durP1;ratioP1;P1;durP2;ratioP2;P2;SDS_P1;SDS_P2;PMS_P1;PMS_P2;Temp;Humidity;BMP_temperature;BMP_pressure;BME280_temperature;BME280_humidity;BME280_pressure;Samples;Min_cycle;Max_cycle;Signal;HPM_P1;HPM_P2
2021/06/11 00:00:01;;;;;;;3.87;2.83;;;;;;;38.57;44.19;161358.23;1786464;80;21312;-82
2021/06/11 00:02:35;;;;;;;6.28;3.40;;;;;;;38.60;44.15;161367.59;1785975;80;21780;-81
2021/06/11 00:05:08;;;;;;;3.02;2.83;;;;;;;38.64;44.02;161378.34;1786342;80;21206;-81
2021/06/11 00:07:41;;;;;;;3.80;2.50;;;;;;;38.62;44.03;161372.97;1786657;80;21676;-82
2021/06/11 00:10:14;;;;;;;3.00;2.55;;;;;;;38.61;44.01;161368.92;1786727;80;21297;-81
2021/06/11 00:12:46;;;;;;;3.92;2.60;;;;;;;38.61;44.04;161370.28;1786621;80;21364;-82
2021/06/11 00:15:20;;;;;;;3.10;2.80;;;;;;;38.56;44.09;161356.86;1786495;79;21238;-81
2021/06/11 00:17:52;;;;;;;2.60;2.40;;;;;;;38.57;44.06;161359.55;1786712;80;21880;-82
2021/06/11 00:20:25;;;;;;;6.05;2.42;;;;;;;38.56;44.08;161355.55;1786637;80;21807;-82
2021/06/11 00:22:57;;;;;;;5.42;2.72;;;;;;;38.56;44.06;161355.55;1786499;80;21183;-81
2021/06/11 00:25:29;;;;;;;2.42;2.22;;;;;;;38.57;44.03;161359.55;1786693;80;21341;-81
2021/06/11 00:28:02;;;;;;;4.05;2.83;;;;;;;38.52;44.05;161346.17;1786571;80;21414;-81
2021/06/11 00:30:34;;;;;;;2.95;2.52;;;;;;;38.47;44.16;161331.44;1786792;80;21812;-82
2021/06/11 00:33:10;;;;;;;2.70;2.33;;;;;;;38.38;44.26;161308.64;1786540;80;21748;-81
2021/06/11 00:35:42;;;;;;;2.77;2.58;;;;;;;38.40;44.27;161314.02;1729541;81;21199;-81
2021/06/11 00:38:15;;;;;;;2.80;2.50;;;;;;;38.40;44.26;161314.02;1719649;82;21243;-82
2021/06/11 00:40:48;;;;;;;2.25;2.05;;;;;;;38.41;44.24;161315.33;1732285;83;21193;-81
2021/06/11 00:43:20;;;;;;;3.70;2.60;;;;;;;38.41;44.23;161315.33;1732543;83;21292;-81
2021/06/11 00:45:53;;;;;;;2.77;2.40;;;;;;;38.36;44.26;161303.28;1732341;83;21236;-82
2021/06/11 00:48:26;;;;;;;3.10;2.62;;;;;;;38.39;44.24;161309.97;1732418;83;21221;-81
2021/06/11 00:50:59;;;;;;;4.20;2.50;;;;;;;38.36;44.30;161301.97;1732079;83;21387;-82
2021/06/11 00:53:31;;;;;;;2.90;2.50;;;;;;;38.35;44.24;161300.59;1732305;83;21688;-82
2021/06/11 00:56:04;;;;;;;2.87;2.40;;;;;;;38.35;44.23;161300.59;1732320;83;21687;-81
2021/06/11 00:58:36;;;;;;;3.77;2.58;;;;;;;38.39;44.15;161309.97;1723734;83;21244;-82
2021/06/11 01:01:09;;;;;;;4.35;2.62;;;;;;;38.31;44.23;161288.53;1723701;83;21202;-81
2021/06/11 01:03:41;;;;;;;3.37;2.20;;;;;;;38.31;44.25;161289.86;1731522;83;21209;-82
2021/06/11 01:06:13;;;;;;;2.95;2.10;;;;;;;38.32;44.23;161292.53;1731586;83;21316;-82
2021/06/11 01:08:46;;;;;;;3.30;2.30;;;;;;;38.36;44.16;161301.97;1731538;83;21378;-83
2021/06/11 01:11:19;;;;;;;2.65;2.12;;;;;;;38.38;44.11;161307.28;1686862;85;21398;-82
2021/06/11 01:13:51;;;;;;;2.60;2.40;;;;;;;38.29;44.18;161284.53;1686894;85;21255;-81
2021/06/11 01:16:24;;;;;;;2.95;2.42;;;;;;;38.29;44.23;161284.53;1731548;83;21236;-82
2021/06/11 01:23:22;;;;;;;2.42;2.22;;;;;;;38.16;44.46;161249.64;1731233;81;21886;-81
2021/06/11 01:26:30;;;;;;;2.47;2.27;;;;;;;38.16;44.46;161249.64;1686806;85;21244;-82
2021/06/11 01:29:07;;;;;;;2.37;2.17;;;;;;;38.18;44.39;161253.64;1686807;85;21997;-80
2021/06/11 01:31:52;;;;;;;2.50;2.00;;;;;;;38.18;44.33;161255.02;1731460;83;21190;-82
2021/06/11 01:34:38;;;;;;;2.98;2.60;;;;;;;38.15;44.41;161245.59;1749590;81;21848;-82
2021/06/11 01:37:24;;;;;;;2.55;2.20;;;;;;;38.20;44.29;161260.33;1772809;81;21214;-81
2021/06/11 01:39:57;;;;;;;2.50;2.15;;;;;;;38.17;44.32;161252.33;1772755;81;21226;-82
2021/06/11 01:42:29;;;;;;;5.55;3.12;;;;;;;38.22;44.22;161264.44;1772926;81;21225;-82
2021/06/11 01:45:07;;;;;;;2.17;1.98;;;;;;;38.17;44.23;161252.33;1772736;81;21316;-81
2021/06/11 01:47:45;;;;;;;2.35;2.10;;;;;;;38.19;44.23;161256.33;1772861;81;21341;-82
2021/06/11 01:50:27;;;;;;;3.17;2.65;;;;;;;38.17;44.21;161250.97;1772801;81;21210;-81
2021/06/11 01:53:00;;;;;;;2.47;2.27;;;;;;;38.19;44.16;161256.33;1772859;81;21183;-81
2021/06/11 01:55:34;;;;;;;3.15;2.33;;;;;;;38.17;44.14;161252.33;1772760;80;21215;-81
2021/06/11 01:58:06;;;;;;;2.65;2.27;;;;;;;38.09;44.24;161230.86;1772690;80;21368;-81
2021/06/11 02:00:39;;;;;;;3.20;2.27;;;;;;;38.09;44.30;161229.55;1772874;81;21357;-81
2021/06/11 02:03:12;;;;;;;3.00;2.30;;;;;;;38.09;44.28;161229.55;1772781;81;21344;-81
2021/06/11 02:05:45;;;;;;;2.70;2.30;;;;;;;38.06;44.30;161221.50;1772723;81;21297;-81
2021/06/11 02:08:18;;;;;;;2.42;2.22;;;;;;;38.02;44.35;161212.13;1772833;81;21206;-82
2021/06/11 02:10:50;;;;;;;3.05;2.40;;;;;;;38.05;44.32;161220.17;1772701;81;21221;-81
2021/06/11 02:13:23;;;;;;;2.27;2.08;;;;;;;38.03;44.31;161214.81;1762191;81;21297;-81
2021/06/11 02:15:56;;;;;;;2.70;2.50;;;;;;;37.97;44.40;161196.02;1772913;81;21674;-80
2021/06/11 02:18:28;;;;;;;2.25;2.05;;;;;;;37.94;44.44;161189.34;1772892;81;21210;-81
2021/06/11 02:21:03;;;;;;;2.37;2.17;;;;;;;37.94;44.45;161188.02;1772809;81;21160;-80
2021/06/11 02:23:37;;;;;;;3.77;2.45;;;;;;;38.00;44.37;161205.44;1772752;81;21702;-81
2021/06/11 02:26:14;;;;;;;2.62;2.20;;;;;;;37.98;44.39;161200.06;1772826;81;21362;-82
2021/06/11 02:28:46;;;;;;;2.87;2.60;;;;;;;37.97;44.41;161197.39;1772609;81;21313;-82
2021/06/11 02:31:19;;;;;;;3.12;2.55;;;;;;;37.94;44.43;161189.34;1772908;81;21257;-81
2021/06/11 02:33:51;;;;;;;2.85;2.42;;;;;;;37.94;44.43;161188.02;1766571;81;21730;-82
2021/06/11 02:36:24;;;;;;;2.80;2.50;;;;;;;37.92;44.44;161182.66;1742233;82;21211;-81
2021/06/11 02:38:56;;;;;;;3.37;2.67;;;;;;;37.91;44.48;161179.97;1742136;82;21360;-81
2021/06/11 02:41:33;;;;;;;3.02;2.50;;;;;;;37.88;44.51;161173.28;1742163;82;21337;-80
2021/06/11 02:44:07;;;;;;;2.90;2.52;;;;;;;37.95;44.40;161190.70;1742237;82;21322;-81
2021/06/11 02:46:50;;;;;;;3.22;2.58;;;;;;;37.93;44.43;161185.34;1742161;82;21183;-81
2021/06/11 02:49:30;;;;;;;2.47;2.27;;;;;;;37.91;44.43;161181.28;1742165;82;21313;-81
2021/06/11 02:52:06;;;;;;;5.15;2.42;;;;;;;37.94;44.39;161189.34;1742311;81;21226;-81
2021/06/11 02:54:40;;;;;;;2.62;2.42;;;;;;;37.97;44.37;161196.02;1742246;82;21349;-80
2021/06/11 02:57:31;;;;;;;2.58;2.30;;;;;;;37.88;44.45;161173.28;1742182;82;21495;-81
2021/06/11 03:00:09;;;;;;;3.22;2.92;;;;;;;37.80;44.58;161151.81;1732155;82;21800;-81
2021/06/11 03:03:12;;;;;;;2.90;2.58;;;;;;;37.93;44.34;161185.34;1750151;82;21177;-80
2021/06/11 03:05:45;;;;;;;2.25;2.08;;;;;;;37.87;44.51;161169.23;1750219;82;21211;-81
2021/06/11 03:08:19;;;;;;;4.03;2.50;;;;;;;37.99;44.24;161202.75;1750144;82;21329;-81
2021/06/11 03:10:57;;;;;;;3.10;2.17;;;;;;;37.96;44.30;161193.39;1750086;82;21206;-82
2021/06/11 03:13:30;;;;;;;3.95;2.60;;;;;;;37.92;44.39;161182.66;1750471;82;21183;-82
2021/06/11 03:16:03;;;;;;;4.03;2.20;;;;;;;37.88;44.48;161171.92;1750079;82;21875;-82
2021/06/11 03:18:46;;;;;;;2.83;2.35;;;;;;;37.87;44.50;161169.23;1750239;82;21253;-81
2021/06/11 03:21:32;;;;;;;2.27;1.98;;;;;;;37.95;44.43;161192.02;1750167;82;21222;-81
2021/06/11 03:24:31;;;;;;;2.92;2.20;;;;;;;37.96;44.39;161194.70;1750081;82;21182;-81
2021/06/11 03:27:19;;;;;;;2.67;2.37;;;;;;;37.80;44.66;161151.81;1750023;82;21372;-82
2021/06/11 03:30:02;;;;;;;2.55;2.35;;;;;;;37.88;44.55;161171.92;1750165;82;21383;-80
2021/06/11 03:32:56;;;;;;;3.02;2.17;;;;;;;37.96;44.42;161194.70;1750139;82;21902;-81
2021/06/11 03:35:36;;;;;;;2.45;2.22;;;;;;;37.75;44.79;161137.03;1777293;80;21371;-80
2021/06/11 03:38:10;;;;;;;4.30;2.37;;;;;;;37.78;44.82;161146.45;1780897;80;21179;-82
2021/06/11 03:40:43;;;;;;;2.50;2.02;;;;;;;37.85;44.76;161165.23;1780862;80;21360;-81
2021/06/11 03:43:16;;;;;;;6.30;2.60;;;;;;;37.95;44.60;161192.02;1781106;80;21914;-83
2021/06/11 03:45:48;;;;;;;2.45;2.25;;;;;;;37.97;44.59;161197.39;1781108;80;22477;-80
2021/06/11 03:48:21;;;;;;;2.65;2.25;;;;;;;37.93;44.64;161185.34;1781098;80;21372;-82
2021/06/11 03:50:53;;;;;;;3.20;2.20;;;;;;;37.91;44.68;161181.28;1781040;80;21710;-81
2021/06/11 03:53:26;;;;;;;3.10;2.42;;;;;;;37.95;44.62;161192.02;1781100;80;21198;-82
2021/06/11 03:56:04;;;;;;;5.22;2.60;;;;;;;37.90;44.72;161178.66;1778081;79;21324;-82
2021/06/11 03:58:43;;;;;;;2.60;2.00;;;;;;;37.95;44.68;161192.02;1760290;80;21415;-82
2021/06/11 04:01:24;;;;;;;2.90;2.43;;;;;;;37.96;44.63;161193.39;1765739;79;21911;-83
2021/06/11 04:03:57;;;;;;;3.70;2.52;;;;;;;37.96;44.63;161193.39;1767800;80;22056;-82
2021/06/11 04:06:39;;;;;;;4.22;2.30;;;;;;;37.97;44.62;161197.39;1771090;80;22143;-78
2021/06/11 04:09:22;;;;;;;3.83;2.50;;;;;;;37.97;44.62;161197.39;1761913;80;21229;-80
2021/06/11 04:12:07;;;;;;;2.65;2.30;;;;;;;37.93;44.67;161186.66;1758731;80;21214;-82
2021/06/11 04:14:43;;;;;;;2.92;2.50;;;;;;;37.92;44.71;161182.66;1769815;80;21210;-81
2021/06/11 04:17:23;;;;;;;2.70;2.30;;;;;;;37.97;44.60;161197.39;1755040;80;21491;-81
2021/06/11 04:19:57;;;;;;;2.62;2.22;;;;;;;37.98;44.56;161200.06;1739936;82;21246;-83
2021/06/11 04:22:32;;;;;;;4.10;2.85;;;;;;;37.93;44.66;161185.34;1755110;82;21712;-82
2021/06/11 04:25:05;;;;;;;2.50;2.30;;;;;;;37.95;44.65;161190.70;1755632;81;21288;-83
2021/06/11 04:27:38;;;;;;;2.90;2.40;;;;;;;37.95;44.66;161190.70;1755435;82;21197;-81
2021/06/11 04:30:11;;;;;;;2.37;2.17;;;;;;;37.91;44.73;161181.28;1755544;82;21237;-82
2021/06/11 04:32:43;;;;;;;2.70;2.40;;;;;;;37.91;44.74;161179.97;1755627;82;21739;-81
2021/06/11 04:35:17;;;;;;;2.62;2.37;;;;;;;37.91;44.77;161181.28;1779993;80;21202;-81
2021/06/11 04:37:49;;;;;;;3.72;2.47;;;;;;;37.91;44.78;161179.97;1769532;80;21190;-82
2021/06/11 04:40:23;;;;;;;2.98;2.58;;;;;;;37.89;44.80;161174.59;1786513;80;21387;-82
2021/06/11 04:42:55;;;;;;;2.55;2.35;;;;;;;37.95;44.78;161190.70;1786690;80;21412;-82
2021/06/11 04:45:28;;;;;;;2.98;2.37;;;;;;;38.04;44.62;161217.50;1786657;80;21376;-82
2021/06/11 04:48:00;;;;;;;2.83;2.22;;;;;;;38.07;44.51;161225.53;1786676;80;21345;-83
2021/06/11 04:50:33;;;;;;;2.72;2.42;;;;;;;38.12;44.47;161238.91;1786581;80;21194;-83
2021/06/11 04:53:05;;;;;;;2.20;1.98;;;;;;;38.04;44.60;161216.13;1786480;80;21911;-82
2021/06/11 04:55:38;;;;;;;3.20;2.72;;;;;;;38.03;44.65;161214.81;1786599;80;21399;-81
2021/06/11 04:58:11;;;;;;;5.25;2.45;;;;;;;38.07;44.60;161224.17;1786548;80;21836;-82
2021/06/11 05:00:43;;;;;;;3.52;2.90;;;;;;;38.03;44.68;161214.81;1785898;80;21357;-81
2021/06/11 05:03:15;;;;;;;3.12;2.30;;;;;;;38.13;44.62;161240.28;1781038;80;21214;-81
2021/06/11 05:05:48;;;;;;;2.67;2.47;;;;;;;38.26;44.30;161276.48;1781054;80;21314;-82
2021/06/11 05:08:20;;;;;;;3.00;2.50;;;;;;;38.25;44.23;161273.81;1781060;80;21356;-81
2021/06/11 05:10:52;;;;;;;2.33;2.12;;;;;;;38.23;44.25;161267.13;1781124;80;21868;-81
2021/06/11 05:13:25;;;;;;;3.00;2.70;;;;;;;38.15;44.42;161246.97;1781001;80;21241;-82
2021/06/11 05:15:57;;;;;;;3.27;2.65;;;;;;;38.19;44.40;161256.33;1781045;80;21183;-81
2021/06/11 05:18:34;;;;;;;3.00;2.50;;;;;;;38.19;44.49;161256.33;1781048;80;21213;-82
2021/06/11 05:21:06;;;;;;;4.10;3.02;;;;;;;38.21;44.45;161261.69;1780930;80;21273;-82
2021/06/11 05:23:38;;;;;;;2.87;2.10;;;;;;;38.20;44.43;161260.33;1780958;80;21218;-82
2021/06/11 05:26:10;;;;;;;3.33;2.62;;;;;;;38.21;44.46;161263.02;1781053;80;21301;-81
2021/06/11 05:28:43;;;;;;;4.37;2.50;;;;;;;38.24;44.57;161271.12;1781173;80;21341;-81
2021/06/11 05:31:16;;;;;;;2.30;2.10;;;;;;;38.24;44.73;161269.80;1781124;80;22388;-83
2021/06/11 05:33:48;;;;;;;4.55;2.45;;;;;;;38.29;44.72;161283.17;1775389;80;21174;-81
2021/06/11 05:36:21;;;;;;;4.25;2.50;;;;;;;38.32;44.69;161291.22;1750032;82;21170;-81
2021/06/11 05:38:53;;;;;;;4.05;2.33;;;;;;;38.30;44.86;161287.22;1750209;82;21392;-81
2021/06/11 05:41:25;;;;;;;2.65;2.45;;;;;;;38.31;44.89;161289.86;1750174;82;21222;-81
2021/06/11 05:43:57;;;;;;;6.95;2.95;;;;;;;38.38;44.87;161307.28;1750159;82;21318;-81
2021/06/11 05:46:31;;;;;;;2.72;2.27;;;;;;;38.34;45.04;161296.59;1750212;82;21717;-82
2021/06/11 05:49:04;;;;;;;4.62;3.10;;;;;;;38.40;45.05;161314.02;1750258;82;21852;-81
2021/06/11 05:51:36;;;;;;;3.72;2.87;;;;;;;38.40;45.18;161312.64;1750253;82;21372;-81
2021/06/11 05:54:08;;;;;;;4.70;2.95;;;;;;;38.36;45.48;161303.28;1750175;82;21349;-81
2021/06/11 05:56:41;;;;;;;4.95;2.90;;;;;;;38.36;45.60;161303.28;1750171;82;21333;-81
2021/06/11 05:59:13;;;;;;;3.15;2.85;;;;;;;38.57;45.34;161358.23;1750142;82;21215;-82
2021/06/11 06:01:46;;;;;;;3.25;2.95;;;;;;;38.71;45.12;161395.81;1750207;82;21223;-82
2021/06/11 06:04:18;;;;;;;3.33;2.85;;;;;;;38.82;45.02;161425.30;1750137;82;21242;-83
2021/06/11 06:06:52;;;;;;;3.35;2.83;;;;;;;38.93;44.83;161454.78;1750205;82;21258;-82
2021/06/11 06:09:26;;;;;;;3.27;2.58;;;;;;;39.04;44.57;161485.59;1750150;82;21792;-81
2021/06/11 06:11:58;;;;;;;2.72;2.52;;;;;;;39.02;44.61;161480.22;1750228;82;21409;-82
2021/06/11 06:14:30;;;;;;;3.55;2.80;;;;;;;38.96;44.71;161465.47;1750253;82;21689;-82
2021/06/11 06:17:03;;;;;;;4.40;2.55;;;;;;;38.79;45.04;161417.25;1749979;82;21489;-82
2021/06/11 06:19:37;;;;;;;3.40;3.00;;;;;;;38.73;45.25;161401.14;1750245;82;21728;-82
2021/06/11 06:22:09;;;;;;;3.08;2.47;;;;;;;38.90;45.15;161448.05;1750065;82;21720;-82
2021/06/11 06:24:42;;;;;;;3.55;2.85;;;;;;;38.76;45.43;161410.56;1750206;82;21202;-82
2021/06/11 06:27:15;;;;;;;3.55;2.62;;;;;;;38.89;45.36;161444.05;1750127;82;21167;-81
2021/06/11 06:29:47;;;;;;;3.60;2.87;;;;;;;38.83;45.55;161429.31;1750214;82;21206;-81
2021/06/11 06:32:20;;;;;;;5.42;3.20;;;;;;;38.84;45.58;161432.00;1750224;82;21222;-82
2021/06/11 06:34:52;;;;;;;3.62;2.70;;;;;;;38.84;45.59;161432.00;1769453;80;21612;-82
2021/06/11 06:37:27;;;;;;;3.80;3.05;;;;;;;38.85;45.67;161433.31;1781076;80;21210;-82
2021/06/11 06:40:00;;;;;;;5.58;3.22;;;;;;;38.83;45.82;161429.31;1780935;80;21816;-83
2021/06/11 06:42:34;;;;;;;2.60;2.37;;;;;;;38.84;45.84;161430.62;1780982;80;21336;-81
2021/06/11 06:45:15;;;;;;;4.12;2.62;;;;;;;38.91;45.80;161450.73;1780973;80;21313;-81
2021/06/11 06:47:46;;;;;;;3.30;2.52;;;;;;;38.91;45.94;161450.73;1780717;80;21371;-82
2021/06/11 06:50:20;;;;;;;3.05;2.40;;;;;;;39.01;45.86;161477.53;1780991;80;21368;-82
2021/06/11 06:53:03;;;;;;;2.80;2.50;;;;;;;38.96;46.08;161464.16;1780924;80;21316;-82
2021/06/11 06:55:26;;;;;;;2.67;2.40;;;;;;;38.96;46.09;161465.47;1780141;80;21218;-81
2021/06/11 06:57:59;;;;;;;2.95;2.27;;;;;;;38.87;46.35;161438.67;1781037;80;21432;-82
2021/06/11 07:00:34;;;;;;;2.75;2.55;;;;;;;38.88;46.29;161441.36;1780966;80;21155;-82
2021/06/11 07:03:06;;;;;;;4.12;2.50;;;;;;;38.88;46.33;161442.73;1780456;80;21367;-82
2021/06/11 07:05:39;;;;;;;2.60;2.40;;;;;;;38.94;46.37;161457.47;1772652;81;21360;-82
2021/06/11 07:08:11;;;;;;;2.85;2.60;;;;;;;38.91;46.34;161449.42;1772699;81;21385;-82
2021/06/11 07:10:44;;;;;;;2.52;2.10;;;;;;;39.06;46.11;161490.97;1772794;81;21337;-82
2021/06/11 07:13:17;;;;;;;3.10;2.45;;;;;;;39.09;46.04;161499.08;1772854;81;22026;-82
2021/06/11 07:15:50;;;;;;;2.02;1.90;;;;;;;39.12;45.96;161508.44;1772773;81;21722;-83
2021/06/11 07:18:22;;;;;;;4.40;2.47;;;;;;;39.15;45.89;161516.50;1772733;81;21356;-82
2021/06/11 07:20:55;;;;;;;2.62;2.30;;;;;;;39.15;45.86;161516.50;1772809;81;21258;-81
2021/06/11 07:23:27;;;;;;;3.75;2.40;;;;;;;39.16;45.83;161519.19;1772699;81;21351;-82
2021/06/11 07:26:05;;;;;;;2.55;2.05;;;;;;;39.11;45.88;161504.44;1772800;81;21227;-83
2021/06/11 07:28:39;;;;;;;2.58;2.35;;;;;;;39.12;45.88;161508.44;1772719;81;21230;-82
2021/06/11 07:31:12;;;;;;;2.87;2.33;;;;;;;39.14;45.87;161512.44;1772782;81;21833;-82
2021/06/11 07:33:44;;;;;;;2.87;2.35;;;;;;;39.11;45.95;161505.77;1768076;81;21384;-82
2021/06/11 07:36:17;;;;;;;2.72;2.22;;;;;;;39.18;45.82;161523.19;1742231;82;21215;-82
2021/06/11 07:38:50;;;;;;;2.30;2.10;;;;;;;39.19;45.82;161525.88;1742036;82;21360;-82
2021/06/11 07:41:22;;;;;;;2.30;2.10;;;;;;;39.23;45.78;161536.62;1742166;82;21837;-82
2021/06/11 07:43:55;;;;;;;2.58;2.37;;;;;;;39.25;45.70;161541.94;1742210;82;21706;-82
2021/06/11 07:46:28;;;;;;;3.47;2.45;;;;;;;39.29;45.62;161554.05;1742193;82;21372;-81
2021/06/11 07:49:00;;;;;;;5.50;2.20;;;;;;;39.28;45.61;161551.36;1742118;82;21333;-81
2021/06/11 07:51:33;;;;;;;3.12;2.05;;;;;;;39.34;45.50;161567.44;1742201;82;21365;-82
2021/06/11 07:54:06;;;;;;;2.42;2.12;;;;;;;39.32;45.51;161560.75;1742373;82;21364;-82
2021/06/11 07:56:39;;;;;;;3.00;2.20;;;;;;;39.32;45.44;161562.06;1742240;82;21210;-81
2021/06/11 07:59:12;;;;;;;2.72;2.10;;;;;;;39.34;45.44;161566.13;1742171;82;21852;-83
2021/06/11 08:01:45;;;;;;;3.95;2.00;;;;;;;39.43;45.23;161590.23;1742215;82;21360;-82
2021/06/11 08:04:18;;;;;;;3.62;3.27;;;;;;;39.35;45.24;161570.13;1742335;82;21389;-82
2021/06/11 08:06:50;;;;;;;4.83;2.20;;;;;;;39.36;45.30;161572.81;1750103;82;22370;-81
2021/06/11 08:09:25;;;;;;;3.80;1.75;;;;;;;39.47;45.28;161600.98;1750101;82;21222;-83
2021/06/11 08:11:57;;;;;;;4.83;2.50;;;;;;;39.66;44.85;161651.97;1750130;82;21210;-82
2021/06/11 08:14:30;;;;;;;2.67;2.47;;;;;;;39.62;44.93;161641.22;1750174;82;21365;-81
2021/06/11 08:17:02;;;;;;;2.55;2.30;;;;;;;39.84;44.68;161700.22;1749996;82;21233;-82
2021/06/11 08:19:36;;;;;;;5.70;2.10;;;;;;;39.77;44.78;161682.78;1750317;82;21874;-82
2021/06/11 08:22:08;;;;;;;4.67;2.10;;;;;;;39.58;45.05;161631.84;1750101;82;21217;-82
2021/06/11 08:24:41;;;;;;;2.30;2.10;;;;;;;39.60;45.02;161635.84;1750075;82;21305;-82
2021/06/11 08:27:13;;;;;;;2.10;1.90;;;;;;;39.58;44.99;161630.53;1750067;82;21219;-82
2021/06/11 08:29:47;;;;;;;2.20;1.82;;;;;;;39.67;44.79;161654.66;1750375;82;21171;-82
2021/06/11 08:32:19;;;;;;;2.47;2.10;;;;;;;39.71;44.58;161665.34;1750255;82;21183;-82
2021/06/11 08:34:51;;;;;;;2.42;2.10;;;;;;;39.78;44.35;161685.47;1769265;80;21340;-81
2021/06/11 08:37:24;;;;;;;2.33;1.80;;;;;;;39.79;44.19;161688.16;1781017;80;21380;-82
2021/06/11 08:39:57;;;;;;;2.55;2.30;;;;;;;39.75;44.17;161676.09;1781089;80;21206;-81
2021/06/11 08:42:31;;;;;;;2.62;1.98;;;;;;;39.78;44.14;161684.16;1781042;80;21210;-81
2021/06/11 08:45:09;;;;;;;2.22;2.02;;;;;;;39.76;44.20;161678.78;1780969;80;21399;-83
2021/06/11 08:47:48;;;;;;;2.50;1.90;;;;;;;39.80;44.17;161689.53;1781085;80;21353;-83
2021/06/11 08:50:31;;;;;;;4.05;2.60;;;;;;;39.84;44.11;161701.59;1781004;80;21427;-82
2021/06/11 08:53:06;;;;;;;2.52;1.98;;;;;;;39.82;44.16;161694.84;1781025;80;21874;-81
2021/06/11 08:55:39;;;;;;;4.75;2.05;;;;;;;39.90;44.04;161717.67;1781152;80;21348;-83
2021/06/11 08:58:11;;;;;;;2.50;1.87;;;;;;;39.93;43.92;161725.78;1781022;80;21352;-82
2021/06/11 09:00:43;;;;;;;2.52;1.90;;;;;;;39.93;43.98;161727.09;1780929;80;21265;-82
2021/06/11 09:03:35;;;;;;;2.00;1.80;;;;;;;39.97;43.95;161736.53;1781023;80;21306;-82
2021/06/11 09:06:07;;;;;;;2.22;2.00;;;;;;;40.02;43.90;161749.91;1778475;80;21385;-82
2021/06/11 09:08:55;;;;;;;2.08;1.87;;;;;;;40.02;43.88;161749.91;1772939;81;21170;-82
2021/06/11 09:11:34;;;;;;;1.72;1.62;;;;;;;39.97;43.95;161737.84;1772830;81;21245;-81
2021/06/11 09:14:13;;;;;;;2.33;2.08;;;;;;;40.02;43.96;161751.28;1772788;81;21772;-83
2021/06/11 09:16:48;;;;;;;2.12;1.82;;;;;;;40.04;43.91;161755.28;1772780;81;21261;-83
2021/06/11 09:19:21;;;;;;;3.60;2.10;;;;;;;40.07;43.95;161763.34;1772715;81;21329;-81
2021/06/11 09:22:01;;;;;;;2.15;2.00;;;;;;;40.14;43.87;161783.47;1772860;81;21721;-83
2021/06/11 09:24:31;;;;;;;2.50;2.10;;;;;;;40.18;43.83;161792.86;1773054;81;21416;-81
2021/06/11 09:27:11;;;;;;;2.20;1.98;;;;;;;40.21;43.66;161800.92;1772779;81;21234;-82
2021/06/11 09:29:45;;;;;;;2.10;1.90;;;;;;;40.21;43.50;161802.23;1772836;81;21190;-80
2021/06/11 09:32:26;;;;;;;2.70;2.50;;;;;;;40.23;43.46;161806.25;1772894;81;21233;-81
2021/06/11 09:35:00;;;;;;;;;;;;;;;40.25;43.44;161812.98;1755085;81;21317;-82
2021/06/11 09:37:36;;;;;;;3.30;1.98;;;;;;;40.30;43.43;161825.06;1742170;82;20338;-82
2021/06/11 09:40:10;;;;;;;2.45;1.98;;;;;;;40.34;43.28;161835.81;1742119;82;21261;-82
2021/06/11 09:42:46;;;;;;;1.70;1.60;;;;;;;40.37;43.16;161843.88;1742352;82;21230;-82
2021/06/11 09:45:21;;;;;;;3.92;2.15;;;;;;;40.42;42.88;161857.31;1742349;82;21289;-81
2021/06/11 09:47:53;;;;;;;1.85;1.70;;;;;;;40.48;42.91;161873.38;1742351;82;21226;-82
2021/06/11 09:50:39;;;;;;;2.15;1.80;;;;;;;40.56;42.69;161896.20;1742259;82;21809;-81
2021/06/11 09:53:14;;;;;;;2.22;1.92;;;;;;;40.61;42.59;161909.66;1742122;82;21424;-82
2021/06/11 09:55:51;;;;;;;1.70;1.60;;;;;;;40.74;42.64;161944.59;1742173;82;21392;-82
2021/06/11 09:58:28;;;;;;;2.30;1.80;;;;;;;40.78;42.71;161955.30;1742294;82;21360;-82
2021/06/11 10:01:03;;;;;;;2.02;1.82;;;;;;;40.85;42.74;161972.75;1742230;82;21423;-82
2021/06/11 10:03:37;;;;;;;1.92;1.77;;;;;;;40.90;42.62;161986.19;1742331;82;21318;-82
2021/06/11 10:06:18;;;;;;;1.70;1.60;;;;;;;40.88;42.57;161982.13;1742156;82;21377;-81
2021/06/11 10:08:47;;;;;;;2.10;1.90;;;;;;;40.91;42.60;161991.52;1742078;82;21392;-82
2021/06/11 10:11:24;;;;;;;2.98;2.25;;;;;;;40.98;42.62;162010.34;1742226;82;21805;-82
2021/06/11 10:13:55;;;;;;;2.22;1.95;;;;;;;41.06;42.54;162031.80;1742253;82;21369;-83
2021/06/11 10:16:27;;;;;;;1.80;1.70;;;;;;;41.12;42.54;162047.94;1742231;82;21737;-83
2021/06/11 10:19:00;;;;;;;2.87;2.05;;;;;;;41.09;42.52;162039.86;1742118;82;21513;-82
2021/06/11 10:21:32;;;;;;;3.27;1.77;;;;;;;41.06;42.59;162030.48;1684956;82;21385;-82
2021/06/11 10:24:06;;;;;;;2.33;2.12;;;;;;;41.08;42.60;162037.17;1742247;82;21924;-82
2021/06/11 10:26:38;;;;;;;2.20;2.00;;;;;;;41.11;42.55;162045.23;1742204;82;21183;-83
2021/06/11 10:29:16;;;;;;;1.98;1.87;;;;;;;41.19;42.44;162066.75;1742052;82;21827;-82
2021/06/11 10:31:48;;;;;;;3.60;2.20;;;;;;;41.18;42.33;162064.06;1742341;82;21769;-81
2021/06/11 10:34:42;;;;;;;2.12;1.87;;;;;;;41.16;42.33;162057.38;1754963;81;21970;-82
2021/06/11 10:37:40;;;;;;;2.45;1.75;;;;;;;41.16;42.30;162058.69;1772708;81;21341;-82
2021/06/11 10:40:25;;;;;;;2.40;2.20;;;;;;;41.18;42.19;162064.06;1772630;81;21404;-82
2021/06/11 10:43:16;;;;;;;2.20;2.00;;;;;;;41.16;42.13;162057.38;1772853;81;21376;-82
2021/06/11 10:45:49;;;;;;;2.20;2.00;;;;;;;41.06;42.29;162031.80;1764010;81;21242;-84
2021/06/11 10:48:22;;;;;;;1.70;1.60;;;;;;;41.04;42.36;162025.09;1772740;81;21195;-81
2021/06/11 10:50:54;;;;;;;3.47;1.72;;;;;;;41.06;42.42;162030.48;1772712;81;21321;-82
2021/06/11 10:53:30;;;;;;;2.92;1.85;;;;;;;41.10;42.52;162041.19;1772781;81;21392;-82
2021/06/11 10:56:13;;;;;;;2.37;2.10;;;;;;;41.20;42.51;162069.44;1772730;81;21360;-82
2021/06/11 10:58:46;;;;;;;3.62;2.10;;;;;;;41.33;42.48;162104.34;1772749;81;21293;-83
2021/06/11 11:01:30;;;;;;;1.92;1.82;;;;;;;41.33;42.48;162104.34;1772874;81;21781;-82
2021/06/11 11:04:29;;;;;;;2.80;2.15;;;;;;;41.38;42.50;162117.75;1772766;81;21186;-82
2021/06/11 11:07:28;;;;;;;2.73;1.90;;;;;;;41.45;42.42;162136.56;1771399;81;21387;-82
2021/06/11 11:10:08;;;;;;;2.42;2.20;;;;;;;41.46;42.34;162139.25;1786233;80;21568;-83
2021/06/11 11:13:05;;;;;;;2.85;2.37;;;;;;;41.41;42.31;162125.81;1786528;80;21828;-82
2021/06/11 11:15:42;;;;;;;2.40;2.20;;;;;;;41.45;42.23;162135.20;1786493;80;21217;-82
2021/06/11 11:18:25;;;;;;;3.58;2.20;;;;;;;41.40;42.23;162123.12;1786572;80;21356;-82
2021/06/11 11:20:57;;;;;;;2.70;2.50;;;;;;;41.36;42.17;162111.05;1786527;80;21352;-83
2021/06/11 11:23:32;;;;;;;2.10;1.90;;;;;;;41.30;42.10;162096.28;1786615;80;21253;-81
2021/06/11 11:26:04;;;;;;;2.87;2.08;;;;;;;41.36;41.94;162111.05;1786567;80;21357;-83
2021/06/11 11:28:36;;;;;;;2.30;2.10;;;;;;;41.26;42.17;162084.20;1786554;80;21343;-83
2021/06/11 11:31:09;;;;;;;4.58;2.50;;;;;;;41.31;42.24;162097.66;1786472;80;21360;-82
2021/06/11 11:33:41;;;;;;;3.12;2.35;;;;;;;41.31;42.24;162097.66;1782373;80;21304;-83
2021/06/11 11:36:13;;;;;;;3.65;1.90;;;;;;;41.44;42.16;162132.52;1755494;82;21190;-82
2021/06/11 11:38:46;;;;;;;2.80;2.60;;;;;;;41.48;41.82;162144.64;1755447;82;21738;-83
2021/06/11 11:41:21;;;;;;;2.10;1.90;;;;;;;41.48;41.82;162144.64;1755419;82;21733;-83
2021/06/11 11:43:52;;;;;;;3.15;2.22;;;;;;;41.55;42.04;162162.09;1755458;82;21359;-82
2021/06/11 11:46:24;;;;;;;2.10;1.90;;;;;;;41.58;42.03;162171.53;1755420;82;21175;-83
2021/06/11 11:48:56;;;;;;;3.30;1.87;;;;;;;41.67;41.93;162195.69;1755437;82;21732;-82
2021/06/11 11:51:29;;;;;;;4.47;2.27;;;;;;;41.76;41.83;162219.84;1755317;82;21198;-81
2021/06/11 11:54:02;;;;;;;3.17;2.47;;;;;;;41.89;41.79;162256.16;1755433;80;21237;-81
2021/06/11 11:56:34;;;;;;;6.78;2.62;;;;;;;41.89;41.79;162256.16;1755431;82;21744;-82
2021/06/11 11:59:07;;;;;;;3.77;2.02;;;;;;;42.00;41.80;162285.75;1755367;82;22002;-82
2021/06/11 12:01:41;;;;;;;4.35;2.22;;;;;;;42.05;41.61;162297.81;1755537;81;21185;-83
2021/06/11 12:04:16;;;;;;;3.10;2.55;;;;;;;42.08;41.61;162307.20;1755587;82;21245;-82